sensor_id;sensor_type;location;lat;lon;timestamp;temperature;humidity
70550;DHT22;58101;48.658;2.328;2023-12-29T00:00:35;8.90;99.90
70550;DHT22;58101;48.658;2.328;2023-12-29T00:03:00;8.90;99.90
70550;DHT22;58101;48.658;2.328;2023-12-29T00:05:26;8.90;99.90
70550;DHT22;58101;48.658;2.328;2023-12-29T00:07:52;9.10;99.90
70550;DHT22;58101;48.658;2.328;2023-12-29T00:10:18;9.00;99.90
70550;DHT22;58101;48.658;2.328;2023-12-29T00:12:44;9.00;99.90
70550;DHT22;58101;48.658;2.328;2023-12-29T00:15:10;9.00;99.90
70550;DHT22;58101;48.658;2.328;2023-12-29T00:17:36;8.90;99.90
70550;DHT22;58101;48.658;2.328;2023-12-29T00:20:06;8.90;99.90
70550;DHT22;58101;48.658;2.328;2023-12-29T00:22:34;8.90;99.90
70550;DHT22;58101;48.658;2.328;2023-12-29T00:24:59;9.00;99.90
70550;DHT22;58101;48.658;2.328;2023-12-29T00:27:25;9.00;99.90
70550;DHT22;58101;48.658;2.328;2023-12-29T00:29:51;9.00;99.90
70550;DHT22;58101;48.658;2.328;2023-12-29T00:32:16;9.10;99.90
70550;DHT22;58101;48.658;2.328;2023-12-29T00:34:42;9.00;99.90
70550;DHT22;58101;48.658;2.328;2023-12-29T00:37:07;8.90;99.90
70550;DHT22;58101;48.658;2.328;2023-12-29T00:39:34;9.00;99.90
70550;DHT22;58101;48.658;2.328;2023-12-29T00:42:05;9.10;99.90
70550;DHT22;58101;48.658;2.328;2023-12-29T00:44:31;9.20;99.90
70550;DHT22;58101;48.658;2.328;2023-12-29T00:46:57;9.20;99.90
70550;DHT22;58101;48.658;2.328;2023-12-29T00:49:23;9.20;99.90
70550;DHT22;58101;48.658;2.328;2023-12-29T00:51:49;9.20;99.90
70550;DHT22;58101;48.658;2.328;2023-12-29T00:54:14;9.40;99.90
70550;DHT22;58101;48.658;2.328;2023-12-29T00:56:40;9.30;99.90
70550;DHT22;58101;48.658;2.328;2023-12-29T00:59:06;9.30;99.90
70550;DHT22;58101;48.658;2.328;2023-12-29T01:01:35;9.50;99.90
70550;DHT22;58101;48.658;2.328;2023-12-29T01:04:01;9.40;99.90
70550;DHT22;58101;48.658;2.328;2023-12-29T01:06:27;9.40;99.90
70550;DHT22;58101;48.658;2.328;2023-12-29T01:08:53;9.40;99.90
70550;DHT22;58101;48.658;2.328;2023-12-29T01:11:18;9.50;99.90
70550;DHT22;58101;48.658;2.328;2023-12-29T01:13:44;9.50;99.90
70550;DHT22;58101;48.658;2.328;2023-12-29T01:16:09;9.50;99.90
70550;DHT22;58101;48.658;2.328;2023-12-29T01:18:35;9.50;99.90
70550;DHT22;58101;48.658;2.328;2023-12-29T01:21:02;9.50;99.90
70550;DHT22;58101;48.658;2.328;2023-12-29T01:23:28;9.50;99.90
70550;DHT22;58101;48.658;2.328;2023-12-29T01:25:56;9.40;99.90
70550;DHT22;58101;48.658;2.328;2023-12-29T01:28:22;9.60;99.90
70550;DHT22;58101;48.658;2.328;2023-12-29T01:30:47;9.60;99.90
70550;DHT22;58101;48.658;2.328;2023-12-29T01:33:13;9.60;99.90
70550;DHT22;58101;48.658;2.328;2023-12-29T01:35:39;9.60;99.90
70550;DHT22;58101;48.658;2.328;2023-12-29T01:38:04;9.70;99.90
70550;DHT22;58101;48.658;2.328;2023-12-29T01:40:30;9.60;99.90
70550;DHT22;58101;48.658;2.328;2023-12-29T01:42:55;9.70;99.90
70550;DHT22;58101;48.658;2.328;2023-12-29T01:45:22;9.50;99.90
70550;DHT22;58101;48.658;2.328;2023-12-29T01:47:49;9.60;99.90
70550;DHT22;58101;48.658;2.328;2023-12-29T01:50:16;9.60;99.90
70550;DHT22;58101;48.658;2.328;2023-12-29T01:52:43;9.60;99.90
70550;DHT22;58101;48.658;2.328;2023-12-29T01:55:11;9.60;99.90
70550;DHT22;58101;48.658;2.328;2023-12-29T01:57:38;9.60;99.90
70550;DHT22;58101;48.658;2.328;2023-12-29T02:00:05;9.60;99.90
70550;DHT22;58101;48.658;2.328;2023-12-29T02:02:31;9.60;99.90
70550;DHT22;58101;48.658;2.328;2023-12-29T02:04:57;9.50;99.90
70550;DHT22;58101;48.658;2.328;2023-12-29T02:07:24;9.50;99.90
70550;DHT22;58101;48.658;2.328;2023-12-29T02:09:49;9.70;99.90
70550;DHT22;58101;48.658;2.328;2023-12-29T02:12:16;9.50;99.90
70550;DHT22;58101;48.658;2.328;2023-12-29T02:14:42;9.50;99.90
70550;DHT22;58101;48.658;2.328;2023-12-29T02:17:15;9.50;99.90
70550;DHT22;58101;48.658;2.328;2023-12-29T02:19:45;9.60;99.90
70550;DHT22;58101;48.658;2.328;2023-12-29T02:22:12;9.60;99.90
70550;DHT22;58101;48.658;2.328;2023-12-29T02:24:38;9.60;99.90
70550;DHT22;58101;48.658;2.328;2023-12-29T02:27:24;9.50;99.90
70550;DHT22;58101;48.658;2.328;2023-12-29T02:30:01;9.60;99.90
70550;DHT22;58101;48.658;2.328;2023-12-29T02:32:30;9.60;99.90
70550;DHT22;58101;48.658;2.328;2023-12-29T02:34:57;9.80;99.90
70550;DHT22;58101;48.658;2.328;2023-12-29T02:37:24;9.60;99.90
70550;DHT22;58101;48.658;2.328;2023-12-29T02:39:51;9.70;99.90
70550;DHT22;58101;48.658;2.328;2023-12-29T02:42:16;9.70;99.90
70550;DHT22;58101;48.658;2.328;2023-12-29T02:44:42;9.70;99.90
70550;DHT22;58101;48.658;2.328;2023-12-29T02:47:08;9.70;99.90
70550;DHT22;58101;48.658;2.328;2023-12-29T02:49:33;9.70;99.90
70550;DHT22;58101;48.658;2.328;2023-12-29T02:51:59;9.70;99.90
70550;DHT22;58101;48.658;2.328;2023-12-29T02:54:24;9.70;99.90
70550;DHT22;58101;48.658;2.328;2023-12-29T02:56:50;9.70;99.90
70550;DHT22;58101;48.658;2.328;2023-12-29T02:59:15;9.70;99.90
70550;DHT22;58101;48.658;2.328;2023-12-29T03:01:41;9.70;99.90
70550;DHT22;58101;48.658;2.328;2023-12-29T03:04:07;9.70;99.90
70550;DHT22;58101;48.658;2.328;2023-12-29T03:06:33;9.70;99.90
70550;DHT22;58101;48.658;2.328;2023-12-29T03:08:58;9.70;99.90
70550;DHT22;58101;48.658;2.328;2023-12-29T03:11:24;9.70;99.90
70550;DHT22;58101;48.658;2.328;2023-12-29T03:13:50;9.70;99.90
70550;DHT22;58101;48.658;2.328;2023-12-29T03:16:15;9.80;99.90
70550;DHT22;58101;48.658;2.328;2023-12-29T03:18:41;9.70;99.90
70550;DHT22;58101;48.658;2.328;2023-12-29T03:21:07;9.70;99.90
70550;DHT22;58101;48.658;2.328;2023-12-29T03:23:33;9.70;99.90
70550;DHT22;58101;48.658;2.328;2023-12-29T03:25:59;9.70;99.90
70550;DHT22;58101;48.658;2.328;2023-12-29T03:28:25;9.70;99.90
70550;DHT22;58101;48.658;2.328;2023-12-29T03:30:50;9.70;99.90
70550;DHT22;58101;48.658;2.328;2023-12-29T03:33:16;9.70;99.90
70550;DHT22;58101;48.658;2.328;2023-12-29T03:35:42;9.70;99.90
70550;DHT22;58101;48.658;2.328;2023-12-29T03:38:07;9.70;99.90
70550;DHT22;58101;48.658;2.328;2023-12-29T03:40:33;9.70;99.90
70550;DHT22;58101;48.658;2.328;2023-12-29T03:42:59;9.70;99.90
70550;DHT22;58101;48.658;2.328;2023-12-29T03:45:24;9.70;99.90
70550;DHT22;58101;48.658;2.328;2023-12-29T03:47:50;9.80;99.90
70550;DHT22;58101;48.658;2.328;2023-12-29T03:50:15;9.80;99.90
70550;DHT22;58101;48.658;2.328;2023-12-29T03:52:41;9.70;99.90
70550;DHT22;58101;48.658;2.328;2023-12-29T03:55:07;9.70;99.90
70550;DHT22;58101;48.658;2.328;2023-12-29T03:57:33;9.70;99.90
70550;DHT22;58101;48.658;2.328;2023-12-29T03:59:58;9.70;99.90
70550;DHT22;58101;48.658;2.328;2023-12-29T04:02:24;9.70;99.90
70550;DHT22;58101;48.658;2.328;2023-12-29T04:04:50;9.70;99.90
70550;DHT22;58101;48.658;2.328;2023-12-29T04:07:15;9.70;99.90
70550;DHT22;58101;48.658;2.328;2023-12-29T04:09:41;9.70;99.90
70550;DHT22;58101;48.658;2.328;2023-12-29T04:12:07;9.70;99.90
70550;DHT22;58101;48.658;2.328;2023-12-29T04:14:33;9.70;99.90
70550;DHT22;58101;48.658;2.328;2023-12-29T04:16:58;9.70;99.90
70550;DHT22;58101;48.658;2.328;2023-12-29T04:19:25;9.70;99.90
70550;DHT22;58101;48.658;2.328;2023-12-29T04:21:51;9.70;99.90
70550;DHT22;58101;48.658;2.328;2023-12-29T04:24:17;9.70;99.90
70550;DHT22;58101;48.658;2.328;2023-12-29T04:26:43;9.70;99.90
70550;DHT22;58101;48.658;2.328;2023-12-29T04:29:08;9.80;99.90
70550;DHT22;58101;48.658;2.328;2023-12-29T04:31:34;9.60;99.90
70550;DHT22;58101;48.658;2.328;2023-12-29T04:34:00;9.70;99.90
70550;DHT22;58101;48.658;2.328;2023-12-29T04:36:26;9.60;99.90
70550;DHT22;58101;48.658;2.328;2023-12-29T04:38:51;9.70;99.90
70550;DHT22;58101;48.658;2.328;2023-12-29T04:41:17;9.60;99.90
70550;DHT22;58101;48.658;2.328;2023-12-29T04:43:43;9.60;99.90
70550;DHT22;58101;48.658;2.328;2023-12-29T04:46:08;9.70;99.90
70550;DHT22;58101;48.658;2.328;2023-12-29T04:48:34;9.60;99.90
70550;DHT22;58101;48.658;2.328;2023-12-29T04:50:59;9.60;99.90
70550;DHT22;58101;48.658;2.328;2023-12-29T04:53:25;9.60;99.90
70550;DHT22;58101;48.658;2.328;2023-12-29T04:55:50;9.60;99.90
70550;DHT22;58101;48.658;2.328;2023-12-29T04:58:16;9.70;99.90
70550;DHT22;58101;48.658;2.328;2023-12-29T05:00:41;9.60;99.90
70550;DHT22;58101;48.658;2.328;2023-12-29T05:03:07;9.70;99.90
70550;DHT22;58101;48.658;2.328;2023-12-29T05:05:33;9.60;99.90
70550;DHT22;58101;48.658;2.328;2023-12-29T05:07:59;9.70;99.90
70550;DHT22;58101;48.658;2.328;2023-12-29T05:10:25;9.70;99.90
70550;DHT22;58101;48.658;2.328;2023-12-29T05:12:50;9.70;99.90
70550;DHT22;58101;48.658;2.328;2023-12-29T05:15:19;9.70;99.90
70550;DHT22;58101;48.658;2.328;2023-12-29T05:17:45;9.70;99.90
70550;DHT22;58101;48.658;2.328;2023-12-29T05:20:10;9.70;99.90
70550;DHT22;58101;48.658;2.328;2023-12-29T05:22:36;9.70;99.90
70550;DHT22;58101;48.658;2.328;2023-12-29T05:25:02;9.80;99.90
70550;DHT22;58101;48.658;2.328;2023-12-29T05:27:28;9.70;99.90
70550;DHT22;58101;48.658;2.328;2023-12-29T05:29:54;9.80;99.90
70550;DHT22;58101;48.658;2.328;2023-12-29T05:32:20;9.70;99.90
70550;DHT22;58101;48.658;2.328;2023-12-29T05:34:45;9.80;99.90
70550;DHT22;58101;48.658;2.328;2023-12-29T05:37:11;9.80;99.90
70550;DHT22;58101;48.658;2.328;2023-12-29T05:39:36;9.80;99.90
70550;DHT22;58101;48.658;2.328;2023-12-29T05:42:02;9.80;99.90
70550;DHT22;58101;48.658;2.328;2023-12-29T05:44:28;9.80;99.90
70550;DHT22;58101;48.658;2.328;2023-12-29T05:46:53;9.80;99.90
70550;DHT22;58101;48.658;2.328;2023-12-29T05:49:24;9.80;99.90
70550;DHT22;58101;48.658;2.328;2023-12-29T05:51:51;9.80;99.90
70550;DHT22;58101;48.658;2.328;2023-12-29T05:54:16;9.70;99.90
70550;DHT22;58101;48.658;2.328;2023-12-29T05:56:43;9.80;99.90
70550;DHT22;58101;48.658;2.328;2023-12-29T05:59:08;9.80;99.90
70550;DHT22;58101;48.658;2.328;2023-12-29T06:01:34;9.70;99.90
70550;DHT22;58101;48.658;2.328;2023-12-29T06:04:00;9.80;99.90
70550;DHT22;58101;48.658;2.328;2023-12-29T06:06:25;9.70;99.90
70550;DHT22;58101;48.658;2.328;2023-12-29T06:08:51;9.80;99.90
70550;DHT22;58101;48.658;2.328;2023-12-29T06:11:17;9.80;99.90
70550;DHT22;58101;48.658;2.328;2023-12-29T06:13:42;9.70;99.90
70550;DHT22;58101;48.658;2.328;2023-12-29T06:16:08;9.80;99.90
70550;DHT22;58101;48.658;2.328;2023-12-29T06:18:34;9.80;99.90
70550;DHT22;58101;48.658;2.328;2023-12-29T06:21:01;9.80;99.90
70550;DHT22;58101;48.658;2.328;2023-12-29T06:23:28;9.80;99.90
70550;DHT22;58101;48.658;2.328;2023-12-29T06:25:53;9.80;99.90
70550;DHT22;58101;48.658;2.328;2023-12-29T06:28:19;9.80;99.90
70550;DHT22;58101;48.658;2.328;2023-12-29T06:30:45;9.80;99.90
70550;DHT22;58101;48.658;2.328;2023-12-29T06:33:10;9.80;99.90
70550;DHT22;58101;48.658;2.328;2023-12-29T06:35:36;9.80;99.90
70550;DHT22;58101;48.658;2.328;2023-12-29T06:38:04;9.90;99.90
70550;DHT22;58101;48.658;2.328;2023-12-29T06:40:29;9.80;99.90
70550;DHT22;58101;48.658;2.328;2023-12-29T06:42:55;9.80;99.90
70550;DHT22;58101;48.658;2.328;2023-12-29T06:45:21;9.80;99.90
70550;DHT22;58101;48.658;2.328;2023-12-29T06:47:46;9.80;99.90
70550;DHT22;58101;48.658;2.328;2023-12-29T06:50:12;9.80;99.90
70550;DHT22;58101;48.658;2.328;2023-12-29T06:52:38;9.80;99.90
70550;DHT22;58101;48.658;2.328;2023-12-29T06:55:04;9.80;99.90
70550;DHT22;58101;48.658;2.328;2023-12-29T06:57:30;9.80;99.90
70550;DHT22;58101;48.658;2.328;2023-12-29T06:59:56;9.80;99.90
70550;DHT22;58101;48.658;2.328;2023-12-29T07:02:21;9.80;99.90
70550;DHT22;58101;48.658;2.328;2023-12-29T07:04:47;9.80;99.90
70550;DHT22;58101;48.658;2.328;2023-12-29T07:07:13;9.80;99.90
70550;DHT22;58101;48.658;2.328;2023-12-29T07:09:39;9.80;99.90
70550;DHT22;58101;48.658;2.328;2023-12-29T07:12:07;10.00;99.90
70550;DHT22;58101;48.658;2.328;2023-12-29T07:14:33;9.80;99.90
70550;DHT22;58101;48.658;2.328;2023-12-29T07:17:01;9.80;99.90
70550;DHT22;58101;48.658;2.328;2023-12-29T07:19:26;9.80;99.90
70550;DHT22;58101;48.658;2.328;2023-12-29T07:21:59;9.90;99.90
70550;DHT22;58101;48.658;2.328;2023-12-29T07:24:25;9.80;99.90
70550;DHT22;58101;48.658;2.328;2023-12-29T07:26:50;9.80;99.90
70550;DHT22;58101;48.658;2.328;2023-12-29T07:29:16;9.80;99.90
70550;DHT22;58101;48.658;2.328;2023-12-29T07:31:42;9.80;99.90
70550;DHT22;58101;48.658;2.328;2023-12-29T07:34:07;9.80;99.90
70550;DHT22;58101;48.658;2.328;2023-12-29T07:36:33;9.80;99.90
70550;DHT22;58101;48.658;2.328;2023-12-29T07:39:03;9.80;99.90
70550;DHT22;58101;48.658;2.328;2023-12-29T07:41:29;9.80;99.90
70550;DHT22;58101;48.658;2.328;2023-12-29T07:43:55;9.70;99.90
70550;DHT22;58101;48.658;2.328;2023-12-29T07:46:24;9.80;99.90
70550;DHT22;58101;48.658;2.328;2023-12-29T07:48:51;10.00;99.90
70550;DHT22;58101;48.658;2.328;2023-12-29T07:51:18;9.80;99.90
70550;DHT22;58101;48.658;2.328;2023-12-29T07:53:43;9.80;99.90
70550;DHT22;58101;48.658;2.328;2023-12-29T07:56:12;9.80;99.90
70550;DHT22;58101;48.658;2.328;2023-12-29T07:58:38;9.80;99.90
70550;DHT22;58101;48.658;2.328;2023-12-29T08:01:03;9.80;99.90
70550;DHT22;58101;48.658;2.328;2023-12-29T08:03:29;9.80;99.90
70550;DHT22;58101;48.658;2.328;2023-12-29T08:05:55;9.90;99.90
70550;DHT22;58101;48.658;2.328;2023-12-29T08:08:20;10.00;99.90
70550;DHT22;58101;48.658;2.328;2023-12-29T08:10:46;9.80;99.90
70550;DHT22;58101;48.658;2.328;2023-12-29T08:13:12;10.00;99.90
70550;DHT22;58101;48.658;2.328;2023-12-29T08:15:37;9.80;99.90
70550;DHT22;58101;48.658;2.328;2023-12-29T08:18:06;9.80;99.90
70550;DHT22;58101;48.658;2.328;2023-12-29T08:20:32;9.80;99.90
70550;DHT22;58101;48.658;2.328;2023-12-29T08:22:57;9.90;99.90
70550;DHT22;58101;48.658;2.328;2023-12-29T08:25:23;9.80;99.90
70550;DHT22;58101;48.658;2.328;2023-12-29T08:27:49;9.90;99.90
70550;DHT22;58101;48.658;2.328;2023-12-29T08:30:14;9.80;99.90
70550;DHT22;58101;48.658;2.328;2023-12-29T08:32:40;9.90;99.90
70550;DHT22;58101;48.658;2.328;2023-12-29T08:35:06;9.90;99.90
70550;DHT22;58101;48.658;2.328;2023-12-29T08:37:32;9.90;99.90
70550;DHT22;58101;48.658;2.328;2023-12-29T08:39:59;9.90;99.90
70550;DHT22;58101;48.658;2.328;2023-12-29T08:42:24;9.90;99.90
70550;DHT22;58101;48.658;2.328;2023-12-29T08:44:50;9.90;99.90
70550;DHT22;58101;48.658;2.328;2023-12-29T08:47:16;9.90;99.90
70550;DHT22;58101;48.658;2.328;2023-12-29T08:49:42;10.00;99.90
70550;DHT22;58101;48.658;2.328;2023-12-29T08:52:07;10.00;99.90
70550;DHT22;58101;48.658;2.328;2023-12-29T08:54:34;10.00;99.90
70550;DHT22;58101;48.658;2.328;2023-12-29T08:57:00;10.00;99.90
70550;DHT22;58101;48.658;2.328;2023-12-29T08:59:25;10.00;99.90
70550;DHT22;58101;48.658;2.328;2023-12-29T09:01:51;10.10;99.90
70550;DHT22;58101;48.658;2.328;2023-12-29T09:04:17;10.10;99.90
70550;DHT22;58101;48.658;2.328;2023-12-29T09:06:42;10.10;99.90
70550;DHT22;58101;48.658;2.328;2023-12-29T09:09:08;10.10;99.90
70550;DHT22;58101;48.658;2.328;2023-12-29T09:11:38;10.00;99.90
70550;DHT22;58101;48.658;2.328;2023-12-29T09:14:04;10.20;99.90
70550;DHT22;58101;48.658;2.328;2023-12-29T09:16:30;10.20;99.90
70550;DHT22;58101;48.658;2.328;2023-12-29T09:18:55;10.10;99.90
70550;DHT22;58101;48.658;2.328;2023-12-29T09:21:21;10.20;99.90
70550;DHT22;58101;48.658;2.328;2023-12-29T09:23:46;10.20;99.90
70550;DHT22;58101;48.658;2.328;2023-12-29T09:26:12;10.20;99.90
70550;DHT22;58101;48.658;2.328;2023-12-29T09:28:42;10.20;99.90
70550;DHT22;58101;48.658;2.328;2023-12-29T09:31:10;10.30;99.90
70550;DHT22;58101;48.658;2.328;2023-12-29T09:33:35;10.50;99.90
70550;DHT22;58101;48.658;2.328;2023-12-29T09:36:02;10.40;99.90
70550;DHT22;58101;48.658;2.328;2023-12-29T09:38:28;10.40;99.90
70550;DHT22;58101;48.658;2.328;2023-12-29T09:40:56;10.40;99.90
70550;DHT22;58101;48.658;2.328;2023-12-29T09:43:27;10.30;99.90
70550;DHT22;58101;48.658;2.328;2023-12-29T09:45:55;10.40;99.90
70550;DHT22;58101;48.658;2.328;2023-12-29T09:48:22;10.30;99.90
70550;DHT22;58101;48.658;2.328;2023-12-29T09:50:51;10.40;99.90
70550;DHT22;58101;48.658;2.328;2023-12-29T09:53:19;10.40;99.90
70550;DHT22;58101;48.658;2.328;2023-12-29T09:55:48;10.30;99.90
70550;DHT22;58101;48.658;2.328;2023-12-29T09:58:15;10.40;99.90
70550;DHT22;58101;48.658;2.328;2023-12-29T10:00:42;10.40;99.90
70550;DHT22;58101;48.658;2.328;2023-12-29T10:03:08;10.50;99.90
70550;DHT22;58101;48.658;2.328;2023-12-29T10:05:34;10.50;99.90
70550;DHT22;58101;48.658;2.328;2023-12-29T10:08:02;10.50;99.90
70550;DHT22;58101;48.658;2.328;2023-12-29T10:10:30;10.60;99.90
70550;DHT22;58101;48.658;2.328;2023-12-29T10:12:56;10.60;99.90
70550;DHT22;58101;48.658;2.328;2023-12-29T10:15:41;10.60;99.90
70550;DHT22;58101;48.658;2.328;2023-12-29T10:23:42;10.70;99.90
70550;DHT22;58101;48.658;2.328;2023-12-29T10:26:11;10.70;99.90
70550;DHT22;58101;48.658;2.328;2023-12-29T10:28:36;10.70;99.90
70550;DHT22;58101;48.658;2.328;2023-12-29T10:31:04;10.70;99.90
70550;DHT22;58101;48.658;2.328;2023-12-29T10:33:30;10.70;99.90
70550;DHT22;58101;48.658;2.328;2023-12-29T10:36:02;10.70;99.90
70550;DHT22;58101;48.658;2.328;2023-12-29T10:38:29;10.70;99.90
70550;DHT22;58101;48.658;2.328;2023-12-29T10:41:10;10.70;99.90
70550;DHT22;58101;48.658;2.328;2023-12-29T10:43:37;10.70;99.90
70550;DHT22;58101;48.658;2.328;2023-12-29T10:46:06;10.80;99.90
70550;DHT22;58101;48.658;2.328;2023-12-29T10:48:36;10.80;99.90
70550;DHT22;58101;48.658;2.328;2023-12-29T10:51:05;10.80;99.90
70550;DHT22;58101;48.658;2.328;2023-12-29T10:53:32;10.70;99.90
70550;DHT22;58101;48.658;2.328;2023-12-29T10:55:58;10.80;99.90
70550;DHT22;58101;48.658;2.328;2023-12-29T10:58:25;10.60;99.90
70550;DHT22;58101;48.658;2.328;2023-12-29T11:00:54;10.80;99.90
70550;DHT22;58101;48.658;2.328;2023-12-29T11:03:19;10.80;99.90
70550;DHT22;58101;48.658;2.328;2023-12-29T11:05:45;10.80;99.90
70550;DHT22;58101;48.658;2.328;2023-12-29T11:08:21;10.90;99.90
70550;DHT22;58101;48.658;2.328;2023-12-29T11:10:50;10.90;99.90
70550;DHT22;58101;48.658;2.328;2023-12-29T11:13:15;10.70;99.90
70550;DHT22;58101;48.658;2.328;2023-12-29T11:15:43;10.80;99.90
70550;DHT22;58101;48.658;2.328;2023-12-29T11:18:14;10.80;99.90
70550;DHT22;58101;48.658;2.328;2023-12-29T11:20:41;10.90;99.90
70550;DHT22;58101;48.658;2.328;2023-12-29T11:23:09;10.80;99.90
70550;DHT22;58101;48.658;2.328;2023-12-29T11:25:34;10.80;99.90
70550;DHT22;58101;48.658;2.328;2023-12-29T11:28:00;10.80;99.90
70550;DHT22;58101;48.658;2.328;2023-12-29T11:30:27;10.80;99.90
70550;DHT22;58101;48.658;2.328;2023-12-29T11:35:37;10.80;99.90
70550;DHT22;58101;48.658;2.328;2023-12-29T11:41:13;10.90;99.90
70550;DHT22;58101;48.658;2.328;2023-12-29T11:43:41;10.90;99.90
70550;DHT22;58101;48.658;2.328;2023-12-29T11:46:07;10.90;99.90
70550;DHT22;58101;48.658;2.328;2023-12-29T11:48:56;10.90;99.90
70550;DHT22;58101;48.658;2.328;2023-12-29T11:51:35;10.80;99.90
70550;DHT22;58101;48.658;2.328;2023-12-29T11:54:04;10.80;99.90
70550;DHT22;58101;48.658;2.328;2023-12-29T11:56:32;10.80;99.90
70550;DHT22;58101;48.658;2.328;2023-12-29T11:59:18;10.80;99.90
70550;DHT22;58101;48.658;2.328;2023-12-29T12:01:53;10.80;99.90
70550;DHT22;58101;48.658;2.328;2023-12-29T12:04:39;10.70;99.90
70550;DHT22;58101;48.658;2.328;2023-12-29T12:07:09;10.70;99.90
70550;DHT22;58101;48.658;2.328;2023-12-29T12:09:35;10.70;99.90
70550;DHT22;58101;48.658;2.328;2023-12-29T12:12:05;10.80;99.90
70550;DHT22;58101;48.658;2.328;2023-12-29T12:15:02;10.80;99.90
70550;DHT22;58101;48.658;2.328;2023-12-29T12:17:32;10.90;99.90
70550;DHT22;58101;48.658;2.328;2023-12-29T12:20:08;10.80;99.90
70550;DHT22;58101;48.658;2.328;2023-12-29T12:22:35;10.80;99.90
70550;DHT22;58101;48.658;2.328;2023-12-29T12:25:01;10.90;99.90
70550;DHT22;58101;48.658;2.328;2023-12-29T12:27:29;11.00;99.90
70550;DHT22;58101;48.658;2.328;2023-12-29T12:29:59;10.80;99.90
70550;DHT22;58101;48.658;2.328;2023-12-29T12:32:29;10.90;99.90
70550;DHT22;58101;48.658;2.328;2023-12-29T12:34:55;10.80;99.90
70550;DHT22;58101;48.658;2.328;2023-12-29T12:37:28;10.80;99.90
70550;DHT22;58101;48.658;2.328;2023-12-29T12:39:54;10.80;99.90
70550;DHT22;58101;48.658;2.328;2023-12-29T12:42:21;10.70;99.90
70550;DHT22;58101;48.658;2.328;2023-12-29T12:45:13;10.80;99.90
70550;DHT22;58101;48.658;2.328;2023-12-29T12:47:44;10.70;99.90
70550;DHT22;58101;48.658;2.328;2023-12-29T12:50:11;10.80;99.90
70550;DHT22;58101;48.658;2.328;2023-12-29T12:52:38;10.70;99.90
70550;DHT22;58101;48.658;2.328;2023-12-29T12:55:06;10.70;99.90
70550;DHT22;58101;48.658;2.328;2023-12-29T12:57:32;10.70;99.90
70550;DHT22;58101;48.658;2.328;2023-12-29T12:59:59;10.70;99.90
70550;DHT22;58101;48.658;2.328;2023-12-29T13:02:25;10.70;99.90
70550;DHT22;58101;48.658;2.328;2023-12-29T13:04:52;10.70;99.90
70550;DHT22;58101;48.658;2.328;2023-12-29T13:07:18;10.70;99.90
70550;DHT22;58101;48.658;2.328;2023-12-29T13:09:45;10.70;99.90
70550;DHT22;58101;48.658;2.328;2023-12-29T13:12:12;10.70;99.90
70550;DHT22;58101;48.658;2.328;2023-12-29T13:14:37;10.70;99.90
70550;DHT22;58101;48.658;2.328;2023-12-29T13:17:08;10.70;99.90
70550;DHT22;58101;48.658;2.328;2023-12-29T13:19:34;10.80;99.90
70550;DHT22;58101;48.658;2.328;2023-12-29T13:22:00;10.70;99.90
70550;DHT22;58101;48.658;2.328;2023-12-29T13:24:26;10.70;99.90
70550;DHT22;58101;48.658;2.328;2023-12-29T13:26:57;10.70;99.90
70550;DHT22;58101;48.658;2.328;2023-12-29T13:29:24;10.80;99.90
70550;DHT22;58101;48.658;2.328;2023-12-29T13:31:55;10.80;99.90
70550;DHT22;58101;48.658;2.328;2023-12-29T13:37:02;10.80;99.90
70550;DHT22;58101;48.658;2.328;2023-12-29T13:42:26;10.90;99.90
70550;DHT22;58101;48.658;2.328;2023-12-29T13:44:53;10.90;99.90
70550;DHT22;58101;48.658;2.328;2023-12-29T13:47:20;11.00;99.90
70550;DHT22;58101;48.658;2.328;2023-12-29T13:49:46;11.00;99.90
70550;DHT22;58101;48.658;2.328;2023-12-29T13:52:14;11.00;99.90
70550;DHT22;58101;48.658;2.328;2023-12-29T13:54:41;11.00;99.90
70550;DHT22;58101;48.658;2.328;2023-12-29T13:57:10;11.00;99.90
70550;DHT22;58101;48.658;2.328;2023-12-29T13:59:36;11.00;99.90
70550;DHT22;58101;48.658;2.328;2023-12-29T14:02:26;11.10;99.90
70550;DHT22;58101;48.658;2.328;2023-12-29T14:05:14;11.10;99.90
70550;DHT22;58101;48.658;2.328;2023-12-29T14:07:53;11.10;99.90
70550;DHT22;58101;48.658;2.328;2023-12-29T14:10:20;11.20;99.90
70550;DHT22;58101;48.658;2.328;2023-12-29T14:12:46;11.20;99.90
70550;DHT22;58101;48.658;2.328;2023-12-29T14:15:12;11.20;99.90
70550;DHT22;58101;48.658;2.328;2023-12-29T14:17:39;11.20;99.90
70550;DHT22;58101;48.658;2.328;2023-12-29T14:20:06;11.30;99.90
70550;DHT22;58101;48.658;2.328;2023-12-29T14:22:35;11.20;99.90
70550;DHT22;58101;48.658;2.328;2023-12-29T14:25:03;11.20;99.90
70550;DHT22;58101;48.658;2.328;2023-12-29T14:27:29;11.20;99.90
70550;DHT22;58101;48.658;2.328;2023-12-29T14:29:56;11.20;99.90
70550;DHT22;58101;48.658;2.328;2023-12-29T14:32:22;11.20;99.90
70550;DHT22;58101;48.658;2.328;2023-12-29T14:34:48;11.10;99.90
70550;DHT22;58101;48.658;2.328;2023-12-29T14:37:19;11.20;99.90
70550;DHT22;58101;48.658;2.328;2023-12-29T14:39:51;11.20;99.90
70550;DHT22;58101;48.658;2.328;2023-12-29T14:42:17;11.10;99.90
70550;DHT22;58101;48.658;2.328;2023-12-29T14:44:46;11.10;99.90
70550;DHT22;58101;48.658;2.328;2023-12-29T14:47:14;11.10;99.90
70550;DHT22;58101;48.658;2.328;2023-12-29T14:49:40;11.10;99.90
70550;DHT22;58101;48.658;2.328;2023-12-29T14:52:06;11.20;99.90
70550;DHT22;58101;48.658;2.328;2023-12-29T14:54:31;11.20;99.90
70550;DHT22;58101;48.658;2.328;2023-12-29T14:56:57;11.20;99.90
70550;DHT22;58101;48.658;2.328;2023-12-29T14:59:22;11.20;99.90
70550;DHT22;58101;48.658;2.328;2023-12-29T15:01:48;11.20;99.90
70550;DHT22;58101;48.658;2.328;2023-12-29T15:04:13;11.20;99.90
70550;DHT22;58101;48.658;2.328;2023-12-29T15:06:40;11.20;99.90
70550;DHT22;58101;48.658;2.328;2023-12-29T15:09:06;11.30;99.90
70550;DHT22;58101;48.658;2.328;2023-12-29T15:11:33;11.20;99.90
70550;DHT22;58101;48.658;2.328;2023-12-29T15:13:59;11.30;99.90
70550;DHT22;58101;48.658;2.328;2023-12-29T15:16:24;11.20;99.90
70550;DHT22;58101;48.658;2.328;2023-12-29T15:18:50;11.20;99.90
70550;DHT22;58101;48.658;2.328;2023-12-29T15:21:15;11.20;99.90
70550;DHT22;58101;48.658;2.328;2023-12-29T15:23:41;11.20;99.90
70550;DHT22;58101;48.658;2.328;2023-12-29T15:26:06;11.20;99.90
70550;DHT22;58101;48.658;2.328;2023-12-29T15:28:32;11.10;99.90
70550;DHT22;58101;48.658;2.328;2023-12-29T15:30:58;11.20;99.90
70550;DHT22;58101;48.658;2.328;2023-12-29T15:33:23;11.20;99.90
70550;DHT22;58101;48.658;2.328;2023-12-29T15:35:50;11.20;99.90
70550;DHT22;58101;48.658;2.328;2023-12-29T15:38:16;11.30;99.90
70550;DHT22;58101;48.658;2.328;2023-12-29T15:40:42;11.20;99.90
70550;DHT22;58101;48.658;2.328;2023-12-29T15:43:07;11.20;99.90
70550;DHT22;58101;48.658;2.328;2023-12-29T15:45:33;11.30;99.90
70550;DHT22;58101;48.658;2.328;2023-12-29T15:47:59;11.20;99.90
70550;DHT22;58101;48.658;2.328;2023-12-29T15:50:24;11.10;99.90
70550;DHT22;58101;48.658;2.328;2023-12-29T15:52:50;11.30;99.90
70550;DHT22;58101;48.658;2.328;2023-12-29T15:55:15;11.20;99.90